KSUU/SUU METAR and TAF weather

Enter ICAO airport designator
Station Type Date Time Source
KSUU METAR 2019/12/07 14:58 UTC NOAA

KSUU 071458Z AUTO 19004KT 10SM SCT032 12/11 A2994 RMK AO2 SLP145 60000 T01210110 55000 $


Station Type Date Time Source
KSUU Decoded METAR 2019/12/07 14:58 UTC NOAA

Fairfield / Travis Air Force Base, CA, United States (KSUU) 38-16N 121-57W 22M
Dec 07, 2019 - 09:58 AM EST / 2019.12.07 1458 UTC
Wind: from the S (190 degrees) at 5 MPH (4 KT):0
Visibility: 10 mile(s):0
Sky conditions: partly cloudy
Temperature: 53.8 F (12.1 C)
Dew Point: 51.8 F (11.0 C)
Relative Humidity: 92%
Pressure (altimeter): 29.94 in. Hg (1013 hPa)
Pressure tendency: 0.00 inches (0.0 hPa) lower than three hours ago
ob: KSUU 071458Z AUTO 19004KT 10SM SCT032 12/11 A2994 RMK AO2 SLP145 60000 T01210110 55000
cycle: 15

Station Type Date Time Source
KSUU TAF 2019/12/07 11:06 UTC NOAA

TAF KSUU 071100Z 0711/0817 14012KT 8000 -SHRA SCT020 OVC030 QNH2994INS
BECMG 0717/0718 14015G25KT 8000 -SHRA VCTS BKN015CB OVC025 QNH2987INS
BECMG 0802/0803 23015G25KT 8000 -SHRA BKN010 OVC025 QNH2987INS
BECMG 0810/0811 23012KT 9000 -SHRA BR BKN010 OVC025 QNH2995INS TX17/0723Z TN12/0712Z

Example: see airport list